ADDS TAF Board (Experimental) INFO Settings
IDs: Format: Expanded Condensed

KFLL - Ft Lauderdale-Hollyw, FL, US

Issued at 0536 UTC 01 Aug 2015
Updated at: 0745 UTC 01 Aug 2015
Time0653Z 01/08Z 01/09Z 01/10Z 01/11Z 01/12Z 01/13Z 01/14Z 01/15Z 01/16Z 01/17Z 01/18Z 01/19Z 01/20Z
Type OBS PRVL PRVL PRVL PRVL PRVL PRVL PRVL PRVL PRVL PRVL PRVL PRVL PRVL
VIS 10 >6 >6 >6 >6 >6 >6 >6 >6 >6 >6 >6 >6 >6
CIG -- 220 220 220 220 220 220 100 100 100 100 100 100 100
Cover SCT BKN BKN BKN BKN BKN BKN BKN BKN BKN BKN BKN BKN BKN
FltCat VFR VFR VFR VFR VFR VFR VFR VFR VFR VFR VFR VFR VFR VFR
WX -- -- -- -- -- -- -- -- -- -- -- VCTS VCTS VCTS
WDir 290 VRB VRB VRB VRB VRB VRB 150 150 150 150 140 140 140
WSpd 3 3 3 3 3 3 3 10 10 10 10 12 12 12
WGst -- -- -- -- -- -- -- -- -- -- -- -- -- --
R10/28
XWnd 1 VRB VRB VRB VRB VRB VRB -9 -9 -9 -9 -9 -9 -9
HWnd -3 VRB VRB VRB VRB VRB VRB 5 5 5 5 8 8 8

NOTE: TEMPO conditions in [brackets]. Keep in mind TEMPO conditions might be better (lower impact) than prevailing conditions.

Raw TAF
KFLL 010536Z 0106/0206 VRB03KT P6SM FEW030 SCT080 BKN220
  FM011400 15010KT P6SM SCT035 BKN100 BKN250
  FM011800 14012KT P6SM VCTS SCT035CB BKN100 BKN250
  FM020000 VRB05KT P6SM FEW040 BKN100 BKN250


Raw METAR
KFLL 010653Z 29003KT 10SM FEW027 SCT220 26/22 A3001 RMK AO2 SLP161 T02560217
KFLL 010553Z 31003KT 10SM FEW028 25/22 A3003 RMK AO2 SLP169 T02500217 10267 20244 58003
KFLL 010453Z 00000KT 10SM FEW028 SCT080 SCT220 26/21 A3004 RMK AO2 SLP170 T02610211 403330244

METAR Board
Radar Display
Forecast Discussion

TAF Board Legend

Potential Impact
Threat None Slight Moderate High
Visibility (sm) ≥5.1 5.1>X≥3 3>X≥1 <1
Ceiling (100 ft) ≥30.1 30.1>X≥10 10>X≥5 <5
Wind Speed (kt) <10 10≤X<20 20≤X<30 ≥30
Wind Gust (kt) <15 15≤X<25 25≤X<35 ≥35
Weather No Wx Reported VCTS,-TS,-FZRA,SN TS,FZRA +TS,+FZRA,+SN